Time;durP1;ratioP1;P1;durP2;ratioP2;P2;SDS_P1;SDS_P2;PMS_P1;PMS_P2;Temp;Humidity;BMP_temperature;BMP_pressure;BME280_temperature;BME280_humidity;BME280_pressure;Samples;Min_cycle;Max_cycle;Signal;HPM_P1;HPM_P2
2021/08/25 00:01:20;;;;;;;;;5.00;5.00;;;;;30.59;23.42;100732.69;144163;582;131913;-70
2021/08/25 00:04:00;;;;;;;;;5.25;5.00;;;;;30.49;23.58;100730.16;144177;587;132010;-70
2021/08/25 00:06:49;;;;;;;;;4.75;4.75;;;;;30.64;23.44;100730.28;144168;630;132913;-70
2021/08/25 00:09:24;;;;;;;;;3.75;3.75;;;;;30.86;23.23;100732.22;144177;618;132012;-70
2021/08/25 00:15:30;;;;;;;;;4.50;4.50;;;;;30.83;23.28;100732.59;144163;601;131045;-72
2021/08/25 00:21:58;;;;;;;;;5.00;5.00;;;;;30.87;23.18;100733.94;144174;568;132010;-73
2021/08/25 00:24:32;;;;;;;;;4.75;4.75;;;;;30.91;22.74;100739.84;144157;659;131910;-73
2021/08/25 00:27:06;;;;;;;;;3.00;3.00;;;;;30.79;22.87;100733.97;144180;570;132010;-73
2021/08/25 00:29:40;;;;;;;;;6.00;6.00;;;;;30.71;23.27;100737.56;144161;608;132013;-74
2021/08/25 00:49:32;;;;;;;;;5.25;5.25;;;;;30.59;24.18;100724.53;144161;587;132012;-74
2021/08/25 00:52:12;;;;;;;;;5.50;5.50;;;;;30.82;23.58;100714.63;144174;601;132012;-75
2021/08/25 00:54:47;;;;;;;;;6.75;5.25;;;;;30.76;22.93;100714.53;144160;581;132018;-73
2021/08/25 00:57:29;;;;;;;;;3.00;3.00;;;;;30.61;23.09;100723.34;144170;566;132012;-73
2021/08/25 01:00:03;;;;;;;;;5.25;5.25;;;;;30.35;23.55;100710.88;144153;574;132014;-72
2021/08/25 01:02:50;;;;;;;;;6.00;6.00;;;;;30.46;23.16;100715.09;144178;569;132010;-71
2021/08/25 01:05:27;;;;;;;;;6.00;6.00;;;;;30.44;23.01;100711.75;144169;674;132015;-72
2021/08/25 01:08:01;;;;;;;;;5.00;5.00;;;;;30.31;23.44;100704.09;144177;699;132010;-73
2021/08/25 01:10:38;;;;;;;;;4.75;4.50;;;;;30.21;23.57;100701.59;144160;586;132911;-73
2021/08/25 01:13:14;;;;;;;;;4.75;4.50;;;;;30.14;23.35;100703.31;144159;593;132012;-73
2021/08/25 01:15:49;;;;;;;;;4.75;4.00;;;;;29.82;24.84;100696.84;144154;566;132014;-72
2021/08/25 01:18:23;;;;;;;;;5.50;5.50;;;;;29.59;25.26;100685.03;144177;569;132010;-72
2021/08/25 01:20:59;;;;;;;;;5.50;4.25;;;;;29.66;24.98;100699.56;144163;580;132012;-70
2021/08/25 01:23:37;;;;;;;;;5.75;5.75;;;;;30.02;24.63;100696.56;144177;758;132010;-70
2021/08/25 01:26:11;;;;;;;;;8.00;5.00;;;;;30.43;24.07;100693.75;144158;714;132020;-70
2021/08/25 01:28:53;;;;;;;;;7.25;6.00;;;;;30.48;23.71;100686.00;144181;574;132012;-70
2021/08/25 01:31:30;;;;;;;;;5.00;5.00;;;;;30.39;23.69;100687.84;144169;579;132014;-70
2021/08/25 01:34:11;;;;;;;;;8.00;7.00;;;;;30.33;23.94;100687.69;144181;660;132010;-70
2021/08/25 01:36:45;;;;;;;;;6.00;6.00;;;;;30.31;23.88;100692.44;144160;579;132911;-70
2021/08/25 01:39:19;;;;;;;;;7.00;7.00;;;;;30.15;23.89;100696.84;144164;588;132010;-70
2021/08/25 01:41:53;;;;;;;;;5.00;5.00;;;;;29.87;24.53;100691.81;144155;564;132014;-70
2021/08/25 01:44:27;;;;;;;;;4.25;4.25;;;;;30.05;24.39;100702.47;144175;577;132010;-73
2021/08/25 01:47:01;;;;;;;;;6.25;5.50;;;;;30.08;24.28;100695.03;144155;593;132045;-72
2021/08/25 01:49:35;;;;;;;;;5.00;5.00;;;;;30.14;24.30;100699.75;144179;584;131050;-72
2021/08/25 01:52:10;;;;;;;;;5.75;5.50;;;;;30.28;24.32;100701.75;144160;603;132033;-73
2021/08/25 01:54:44;;;;;;;;;7.00;7.00;;;;;30.24;24.37;100694.13;144179;628;132010;-73
2021/08/25 01:57:18;;;;;;;;;6.25;5.00;;;;;30.20;25.10;100702.59;144167;686;132015;-73
2021/08/25 01:59:52;;;;;;;;;4.00;4.00;;;;;30.21;25.12;100696.19;144180;580;132009;-73
2021/08/25 02:02:29;;;;;;;;;5.00;5.00;;;;;30.04;25.52;100705.34;144158;582;132911;-74
2021/08/25 02:05:04;;;;;;;;;5.00;5.00;;;;;30.16;25.48;100703.12;144160;634;132010;-73
2021/08/25 02:07:37;;;;;;;;;5.75;5.75;;;;;30.08;25.27;100703.97;144160;571;132012;-71
2021/08/25 02:10:12;;;;;;;;;5.00;5.00;;;;;29.87;26.07;100702.66;144178;575;132012;-70
2021/08/25 02:12:46;;;;;;;;;5.25;5.25;;;;;29.59;26.17;100695.84;144158;581;132015;-69
2021/08/25 02:15:20;;;;;;;;;5.00;5.00;;;;;29.78;26.17;100698.22;144170;574;134020;-70
2021/08/25 02:17:53;;;;;;;;;6.25;6.25;;;;;29.82;26.58;100707.69;144155;599;132014;-72
2021/08/25 02:20:27;;;;;;;;;5.00;5.00;;;;;29.79;26.55;100701.78;144181;615;131021;-73
2021/08/25 02:23:01;;;;;;;;;5.00;5.00;;;;;29.80;26.62;100707.03;144169;576;132021;-72
2021/08/25 02:25:35;;;;;;;;;6.25;6.00;;;;;29.83;26.46;100706.69;144179;602;132010;-72
2021/08/25 02:28:09;;;;;;;;;4.00;4.00;;;;;29.82;26.67;100710.38;144160;563;132911;-72
2021/08/25 02:30:43;;;;;;;;;7.00;5.75;;;;;29.73;27.15;100708.72;144160;579;132012;-73
2021/08/25 02:33:17;;;;;;;;;7.00;6.00;;;;;29.56;27.45;100696.19;144159;575;132911;-71
2021/08/25 02:35:51;;;;;;;;;8.50;6.50;;;;;29.60;27.39;100702.97;144180;570;132011;-71
2021/08/25 02:38:25;;;;;;;;;5.00;5.00;;;;;29.37;28.09;100699.06;144157;633;132012;-71
2021/08/25 02:40:59;;;;;;;;;6.00;5.00;;;;;29.67;27.55;100701.25;144177;626;132010;-72
2021/08/25 02:43:33;;;;;;;;;5.25;5.25;;;;;29.64;27.54;100699.75;144157;573;132013;-70
2021/08/25 02:46:08;;;;;;;;;6.25;6.25;;;;;29.34;28.40;100698.53;144176;705;132012;-70
2021/08/25 02:48:41;;;;;;;;;6.00;6.00;;;;;29.54;28.07;100705.31;144166;565;132014;-70
2021/08/25 02:51:15;;;;;;;;;8.00;8.00;;;;;29.99;27.76;100703.16;144180;613;132012;-70
2021/08/25 02:53:55;;;;;;;;;7.00;6.25;;;;;29.92;27.86;100695.88;144156;576;132012;-70
2021/08/25 02:56:29;;;;;;;;;6.00;6.00;;;;;29.85;28.16;100696.56;144162;566;132010;-71
2021/08/25 02:59:02;;;;;;;;;7.50;7.50;;;;;30.07;28.02;100702.28;144157;617;132034;-72
2021/08/25 03:01:36;;;;;;;;;6.00;6.00;;;;;29.84;28.17;100705.66;144181;668;131020;-72
2021/08/25 03:04:10;;;;;;;;;8.00;6.50;;;;;30.05;27.91;100699.75;144153;609;132911;-72
2021/08/25 03:06:44;;;;;;;;;4.00;4.00;;;;;29.99;28.05;100713.97;144180;733;131021;-71
2021/08/25 03:09:18;;;;;;;;;8.00;6.25;;;;;29.94;28.08;100704.69;144158;582;132020;-72
2021/08/25 03:11:57;;;;;;;;;6.25;6.25;;;;;29.84;28.19;100702.97;144177;570;132013;-71
2021/08/25 03:14:30;;;;;;;;;6.50;6.50;;;;;29.88;27.84;100700.78;144170;570;132019;-71
2021/08/25 03:17:04;;;;;;;;;7.75;6.50;;;;;29.78;27.90;100705.50;144178;564;131020;-71
2021/08/25 03:19:38;;;;;;;;;7.25;6.00;;;;;29.68;28.22;100703.78;144157;628;132013;-71
2021/08/25 03:22:12;;;;;;;;;6.00;5.00;;;;;29.35;28.55;100708.34;144163;572;132023;-70
2021/08/25 03:24:46;;;;;;;;;8.25;6.25;;;;;29.40;28.47;100699.72;144158;587;132018;-71
2021/08/25 03:27:20;;;;;;;;;6.50;6.50;;;;;29.32;28.88;100711.34;144180;569;132011;-71
2021/08/25 03:29:53;;;;;;;;;6.00;6.00;;;;;29.37;28.96;100714.41;144161;585;131912;-71
2021/08/25 03:32:27;;;;;;;;;5.25;5.00;;;;;29.48;28.83;100719.50;144176;678;132010;-71
2021/08/25 03:35:02;;;;;;;;;7.00;6.00;;;;;29.63;28.58;100718.84;144156;595;132015;-71
2021/08/25 03:37:38;;;;;;;;;5.25;5.25;;;;;29.36;28.84;100723.53;144179;618;132010;-71
2021/08/25 03:40:13;;;;;;;;;8.00;5.75;;;;;29.36;29.06;100724.38;144168;564;132911;-71
2021/08/25 03:42:47;;;;;;;;;7.00;7.00;;;;;29.43;29.03;100727.28;144179;575;132010;-71
2021/08/25 03:45:21;;;;;;;;;8.75;8.75;;;;;29.48;29.07;100729.47;144159;618;132012;-72
2021/08/25 03:47:56;;;;;;;;;7.00;5.75;;;;;29.53;28.96;100730.66;144161;621;132012;-73
2021/08/25 03:50:29;;;;;;;;;7.25;7.25;;;;;29.69;28.53;100729.00;144155;571;132014;-72
2021/08/25 03:53:04;;;;;;;;;7.00;6.25;;;;;29.71;28.21;100737.78;144181;580;132010;-78
2021/08/25 03:55:37;;;;;;;;;7.00;7.00;;;;;29.65;28.18;100728.50;144163;570;132015;-73
2021/08/25 03:58:11;;;;;;;;;7.25;7.00;;;;;29.69;27.87;100734.41;144182;584;132012;-73
2021/08/25 04:00:45;;;;;;;;;8.50;8.00;;;;;29.60;28.24;100741.66;144156;564;132018;-74
2021/08/25 04:03:19;;;;;;;;;9.00;8.00;;;;;29.18;28.91;100737.12;144176;587;132013;-73
2021/08/25 04:05:53;;;;;;;;;8.00;8.00;;;;;29.61;28.17;100742.50;144170;585;132014;-72
2021/08/25 04:08:27;;;;;;;;;11.00;10.00;;;;;29.79;27.67;100742.37;144173;586;132010;-73
2021/08/25 04:11:01;;;;;;;;;8.00;8.00;;;;;29.67;27.87;100745.37;144155;585;132012;-72
2021/08/25 04:13:35;;;;;;;;;4.25;4.25;;;;;29.76;27.87;100738.13;144163;607;132020;-74
2021/08/25 04:16:09;;;;;;;;;8.00;7.00;;;;;29.73;27.78;100741.19;144159;603;132018;-72
2021/08/25 04:18:43;;;;;;;;;7.00;7.00;;;;;29.69;27.90;100745.25;144182;582;131021;-73
2021/08/25 04:21:17;;;;;;;;;14.50;9.50;;;;;29.62;27.62;100750.47;144155;604;132938;-72
2021/08/25 04:23:51;;;;;;;;;9.00;8.25;;;;;29.50;28.02;100754.50;144178;591;131020;-72
2021/08/25 04:26:25;;;;;;;;;9.00;8.00;;;;;29.51;27.72;100762.44;144151;620;132015;-71
2021/08/25 04:29:00;;;;;;;;;9.50;9.00;;;;;29.46;27.92;100755.84;144173;620;132012;-74
2021/08/25 04:31:34;;;;;;;;;9.00;7.75;;;;;29.49;27.90;100761.75;144173;621;131014;-72
2021/08/25 04:34:08;;;;;;;;;10.75;9.75;;;;;29.41;28.08;100763.59;144174;626;132011;-72
2021/08/25 04:36:41;;;;;;;;;9.00;9.00;;;;;29.33;28.42;100757.16;144155;657;132911;-72
2021/08/25 04:39:15;;;;;;;;;5.25;3.50;;;;;29.11;28.94;100750.47;144167;644;132008;-73
2021/08/25 04:41:49;;;;;;;;;11.00;10.25;;;;;29.40;28.79;100749.22;144155;571;132012;-74
2021/08/25 04:44:23;;;;;;;;;7.25;7.25;;;;;29.75;28.75;100752.66;144176;698;131020;-71
2021/08/25 04:46:57;;;;;;;;;12.00;9.00;;;;;29.86;29.00;100752.34;144149;568;132911;-71
2021/08/25 04:49:31;;;;;;;;;7.25;7.25;;;;;30.01;28.82;100751.69;144176;608;132011;-71
2021/08/25 04:52:08;;;;;;;;;8.00;7.00;;;;;29.98;29.32;100743.94;144161;584;132012;-70
2021/08/25 04:54:43;;;;;;;;;9.75;8.00;;;;;30.07;29.37;100745.59;144178;580;132010;-70
2021/08/25 04:57:17;;;;;;;;;7.25;7.00;;;;;30.36;29.33;100752.34;144168;628;132014;-69
2021/08/25 04:59:51;;;;;;;;;10.25;7.00;;;;;30.76;28.46;100753.28;144172;596;132012;-68
2021/08/25 05:02:25;;;;;;;;;9.50;8.00;;;;;31.00;28.37;100743.34;144152;608;132015;-68
2021/08/25 05:04:59;;;;;;;;;12.50;9.75;;;;;31.18;28.33;100746.69;144156;570;131025;-68
2021/08/25 05:07:32;;;;;;;;;9.25;9.00;;;;;31.40;28.26;100746.91;144151;591;132911;-68
2021/08/25 05:10:17;;;;;;;;;8.00;8.00;;;;;31.62;28.06;100741.69;144184;585;131021;-68
2021/08/25 05:12:51;;;;;;;;;11.50;11.00;;;;;31.79;26.38;100743.25;144150;668;131914;-68
2021/08/25 05:15:25;;;;;;;;;11.00;10.00;;;;;31.78;25.90;100740.72;144174;600;132012;-69
2021/08/25 05:17:59;;;;;;;;;14.00;13.50;;;;;31.83;25.82;100738.31;144148;615;132013;-68
2021/08/25 05:20:33;;;;;;;;;9.50;9.50;;;;;31.49;26.91;100747.69;144174;583;131020;-68
2021/08/25 05:23:07;;;;;;;;;9.75;8.00;;;;;31.41;26.74;100740.44;144167;648;132012;-68
2021/08/25 05:25:43;;;;;;;;;8.25;8.25;;;;;31.73;26.68;100750.25;144181;615;132008;-68
2021/08/25 05:28:17;;;;;;;;;9.75;9.75;;;;;31.84;26.74;100750.88;144150;608;132012;-68
2021/08/25 05:30:50;;;;;;;;;12.00;10.25;;;;;32.12;26.25;100742.97;144153;578;132020;-68
2021/08/25 05:33:24;;;;;;;;;8.75;8.75;;;;;32.29;25.89;100742.84;144154;610;132914;-68
2021/08/25 05:35:59;;;;;;;;;11.00;10.00;;;;;32.36;25.95;100752.78;144178;578;132010;-71
2021/08/25 05:38:34;;;;;;;;;9.50;9.50;;;;;32.64;25.66;100754.84;144152;628;132913;-69
2021/08/25 05:41:08;;;;;;;;;12.25;12.25;;;;;32.76;25.00;100755.28;144177;630;131021;-70
2021/08/25 05:43:41;;;;;;;;;9.50;9.50;;;;;32.87;25.17;100749.34;144154;622;132036;-70
2021/08/25 05:46:15;;;;;;;;;10.75;10.75;;;;;32.94;24.85;100751.31;144169;578;132012;-69
2021/08/25 05:48:49;;;;;;;;;9.25;9.00;;;;;33.06;24.70;100744.38;144161;700;132012;-69
2021/08/25 05:51:23;;;;;;;;;11.25;11.00;;;;;33.26;23.99;100750.09;144171;575;131020;-69
2021/08/25 05:53:57;;;;;;;;;9.75;9.25;;;;;33.41;23.54;100747.31;144158;611;131913;-69
2021/08/25 05:56:31;;;;;;;;;11.25;11.25;;;;;33.51;23.57;100744.28;144153;610;132012;-69
2021/08/25 05:59:05;;;;;;;;;10.75;9.75;;;;;33.61;23.39;100742.06;144148;591;132913;-69
2021/08/25 06:01:39;;;;;;;;;11.00;10.00;;;;;33.73;23.17;100747.84;144171;625;132010;-69
2021/08/25 06:04:14;;;;;;;;;11.75;10.75;;;;;33.78;23.04;100747.28;144154;614;132019;-69
2021/08/25 06:06:48;;;;;;;;;12.50;11.25;;;;;33.77;22.86;100741.00;144174;563;131020;-71
2021/08/25 06:09:21;;;;;;;;;10.50;10.25;;;;;33.84;22.96;100736.44;144147;583;132015;-71
2021/08/25 06:11:55;;;;;;;;;10.75;10.75;;;;;33.18;23.44;100729.25;144175;721;131020;-71
2021/08/25 06:14:29;;;;;;;;;13.25;12.75;;;;;33.64;23.29;100729.94;144162;624;132913;-71
2021/08/25 06:17:03;;;;;;;;;12.00;11.00;;;;;33.32;23.72;100726.72;144176;595;132010;-71
2021/08/25 06:19:38;;;;;;;;;9.25;8.75;;;;;33.78;23.35;100730.94;144151;634;131913;-71
2021/08/25 06:22:11;;;;;;;;;11.00;10.00;;;;;33.99;23.61;100727.38;144160;745;132012;-71
2021/08/25 06:24:45;;;;;;;;;9.75;9.75;;;;;33.86;23.70;100722.63;144154;571;132012;-71
2021/08/25 06:27:20;;;;;;;;;12.00;11.00;;;;;33.33;24.56;100722.97;144182;642;132012;-71
2021/08/25 06:29:53;;;;;;;;;8.75;8.75;;;;;33.50;25.01;100726.25;144162;593;131016;-71
2021/08/25 06:32:27;;;;;;;;;15.00;11.75;;;;;34.01;25.11;100731.59;144176;601;132012;-70
2021/08/25 06:35:01;;;;;;;;;6.75;6.75;;;;;33.62;26.37;100730.16;144160;687;132012;-71
2021/08/25 06:37:35;;;;;;;;;8.25;8.25;;;;;33.49;26.64;100733.59;144177;591;132010;-71
2021/08/25 06:40:10;;;;;;;;;6.75;6.75;;;;;34.23;26.00;100735.09;144167;615;131913;-71
2021/08/25 06:42:44;;;;;;;;;6.75;6.75;;;;;32.73;27.52;100736.62;144177;577;132010;-71
2021/08/25 06:45:18;;;;;;;;;12.75;11.75;;;;;32.40;28.16;100739.69;144148;672;132935;-71
2021/08/25 06:47:52;;;;;;;;;8.75;8.75;;;;;31.83;28.26;100736.44;144159;566;131021;-71
2021/08/25 06:50:26;;;;;;;;;10.75;10.75;;;;;31.80;29.03;100738.69;144154;772;132014;-70
2021/08/25 06:53:00;;;;;;;;;9.00;6.50;;;;;31.55;29.06;100744.28;144178;627;132013;-70
2021/08/25 06:55:33;;;;;;;;;9.25;9.25;;;;;32.12;28.88;100748.41;144156;635;132914;-71
2021/08/25 06:58:07;;;;;;;;;8.00;8.00;;;;;32.93;27.75;100745.06;144177;563;131043;-71
2021/08/25 07:00:41;;;;;;;;;9.25;9.00;;;;;33.22;27.23;100746.88;144153;653;132913;-71
2021/08/25 07:03:15;;;;;;;;;9.75;9.75;;;;;33.20;27.78;100746.22;144177;566;131023;-71
2021/08/25 07:05:49;;;;;;;;;8.00;8.00;;;;;32.49;28.56;100743.16;144168;563;131913;-71
2021/08/25 07:08:33;;;;;;;;;14.00;13.00;;;;;32.83;28.47;100750.75;144175;628;132010;-71
2021/08/25 07:11:07;;;;;;;;;8.00;8.00;;;;;32.67;29.92;100748.22;144160;639;132012;-72
2021/08/25 07:13:41;;;;;;;;;8.00;8.00;;;;;33.24;28.82;100746.69;144163;694;132033;-70
2021/08/25 07:16:16;;;;;;;;;11.50;10.75;;;;;33.85;28.87;100754.47;144155;594;131020;-70
2021/08/25 07:18:50;;;;;;;;;8.75;8.00;;;;;34.13;28.30;100753.66;144181;584;132010;-71
2021/08/25 07:21:24;;;;;;;;;9.25;9.00;;;;;34.50;27.61;100748.94;144152;611;131911;-71
2021/08/25 07:24:34;;;;;;;;;7.50;7.50;;;;;34.28;27.90;100741.81;144178;618;132010;-71
2021/08/25 07:30:47;;;;;;;;;11.00;10.00;;;;;34.02;28.36;100746.88;144174;640;132010;-71
2021/08/25 07:33:22;;;;;;;;;9.50;9.50;;;;;34.93;27.12;100742.47;144164;614;132911;-71
2021/08/25 07:35:56;;;;;;;;;8.00;8.00;;;;;34.39;27.94;100749.47;144179;563;131020;-71
2021/08/25 07:38:30;;;;;;;;;14.00;11.75;;;;;34.02;28.15;100752.34;144146;587;132909;-72
2021/08/25 07:41:03;;;;;;;;;11.00;11.00;;;;;33.20;29.77;100745.37;144147;675;132014;-71
2021/08/25 07:43:37;;;;;;;;;9.75;8.75;;;;;32.84;30.44;100747.03;144157;572;131909;-72
2021/08/25 07:46:11;;;;;;;;;8.75;8.75;;;;;33.47;29.53;100745.72;144174;623;132014;-71
2021/08/25 07:48:45;;;;;;;;;10.75;10.25;;;;;33.22;29.26;100744.16;144161;581;132909;-71
2021/08/25 07:51:19;;;;;;;;;9.00;9.00;;;;;34.46;27.25;100739.47;144176;593;132010;-72
2021/08/25 07:53:53;;;;;;;;;10.25;8.00;;;;;34.05;28.20;100742.91;144155;567;132013;-71
2021/08/25 07:56:27;;;;;;;;;8.00;8.00;;;;;35.16;26.08;100733.94;144177;643;132014;-73
2021/08/25 07:59:01;;;;;;;;;6.50;6.50;;;;;35.45;24.18;100733.84;144166;610;132014;-71
2021/08/25 08:01:35;;;;;;;;;8.00;8.00;;;;;35.66;22.00;100730.91;144172;587;132014;-72
2021/08/25 08:04:09;;;;;;;;;6.50;6.00;;;;;35.00;22.63;100728.87;144153;591;132909;-72
2021/08/25 08:07:04;;;;;;;;;6.25;6.00;;;;;35.31;22.12;100735.66;144165;633;132010;-72
2021/08/25 08:09:39;;;;;;;;;7.00;7.00;;;;;35.69;21.24;100732.41;144158;575;132012;-72
2021/08/25 08:12:14;;;;;;;;;8.50;7.00;;;;;35.20;21.95;100734.38;144175;576;132014;-71
2021/08/25 08:14:48;;;;;;;;;6.50;6.50;;;;;35.56;21.08;100733.22;144165;592;132012;-72
2021/08/25 08:17:22;;;;;;;;;7.25;6.25;;;;;35.41;21.93;100727.97;144181;570;131021;-72
2021/08/25 08:19:56;;;;;;;;;9.00;7.25;;;;;33.73;25.62;100729.63;144155;614;132012;-71
2021/08/25 08:22:30;;;;;;;;;8.00;8.00;;;;;33.15;25.66;100726.91;144170;587;132015;-72
2021/08/25 08:25:04;;;;;;;;;8.50;8.25;;;;;32.63;28.67;100722.44;144167;626;132014;-70
2021/08/25 08:27:38;;;;;;;;;9.00;9.00;;;;;32.73;27.33;100725.75;144178;606;131020;-72
2021/08/25 08:30:13;;;;;;;;;7.75;7.75;;;;;32.44;30.19;100719.28;144155;648;132909;-71
2021/08/25 08:32:47;;;;;;;;;7.25;7.25;;;;;32.43;29.19;100731.16;144164;615;131030;-71
2021/08/25 08:35:20;;;;;;;;;9.75;9.75;;;;;33.35;28.39;100716.28;144154;592;132020;-71
2021/08/25 08:37:59;;;;;;;;;6.00;6.00;;;;;33.71;27.32;100714.56;144176;607;132012;-72
2021/08/25 08:40:34;;;;;;;;;7.25;7.25;;;;;34.37;26.41;100710.69;144152;615;132014;-71
2021/08/25 08:43:13;;;;;;;;;8.00;8.00;;;;;34.29;26.43;100711.66;144176;631;132014;-71
2021/08/25 08:45:48;;;;;;;;;7.00;6.50;;;;;33.11;27.63;100708.44;144157;577;132014;-71
2021/08/25 08:48:22;;;;;;;;;7.75;7.75;;;;;33.98;25.59;100710.19;144176;634;131020;-72
2021/08/25 08:50:56;;;;;;;;;9.00;8.75;;;;;34.50;24.46;100707.19;144169;608;132014;-71
2021/08/25 08:53:33;;;;;;;;;7.00;7.00;;;;;34.17;25.79;100714.09;144174;574;132014;-72
2021/08/25 08:56:08;;;;;;;;;10.75;10.75;;;;;33.80;26.56;100712.56;144160;636;132012;-72
2021/08/25 08:58:43;;;;;;;;;8.25;8.25;;;;;32.72;27.03;100713.19;144163;566;132010;-71
2021/08/25 09:01:17;;;;;;;;;6.75;6.75;;;;;33.43;25.81;100712.59;144156;596;132013;-70
2021/08/25 09:03:54;;;;;;;;;10.00;9.25;;;;;33.76;25.69;100708.50;144177;586;132008;-70
2021/08/25 09:06:46;;;;;;;;;7.50;7.00;;;;;33.01;27.30;100706.03;144154;664;132015;-71
2021/08/25 09:09:20;;;;;;;;;7.50;7.50;;;;;34.01;25.91;100706.22;144171;563;134020;-71
2021/08/25 09:11:56;;;;;;;;;6.00;6.00;;;;;33.33;25.62;100698.47;144158;701;132045;-71
2021/08/25 09:14:30;;;;;;;;;5.75;5.75;;;;;33.37;26.80;100697.06;144173;570;132015;-71
2021/08/25 09:17:07;;;;;;;;;11.50;10.50;;;;;33.79;26.83;100695.38;144166;599;132014;-72
2021/08/25 09:19:41;;;;;;;;;8.00;8.00;;;;;33.53;26.60;100688.63;144177;662;132010;-72
2021/08/25 09:22:27;;;;;;;;;9.50;9.00;;;;;33.74;25.91;100687.75;144158;575;132045;-72
2021/08/25 09:25:01;;;;;;;;;9.00;8.25;;;;;33.77;25.55;100691.16;144157;581;132010;-71
2021/08/25 09:27:35;;;;;;;;;5.75;4.25;;;;;32.81;27.59;100697.66;144152;622;132014;-71
2021/08/25 09:30:09;;;;;;;;;6.50;6.50;;;;;33.53;26.70;100691.34;144176;575;132012;-71
2021/08/25 09:32:43;;;;;;;;;9.50;7.75;;;;;34.32;25.14;100696.81;144159;593;132012;-71
2021/08/25 09:35:44;;;;;;;;;9.50;8.75;;;;;34.74;23.83;100692.22;144177;601;131020;-71
2021/08/25 09:38:26;;;;;;;;;7.25;7.25;;;;;34.33;24.16;100703.97;144153;573;132906;-71
2021/08/25 09:41:03;;;;;;;;;9.25;9.25;;;;;34.03;24.58;100707.69;144173;565;132014;-71
2021/08/25 09:43:56;;;;;;;;;7.75;7.75;;;;;34.86;24.22;100701.53;144172;570;132907;-71
2021/08/25 09:46:30;;;;;;;;;6.00;6.00;;;;;34.86;23.63;100696.09;144175;599;132012;-71
2021/08/25 09:49:03;;;;;;;;;7.75;6.00;;;;;34.48;24.03;100699.22;144160;576;132018;-73
2021/08/25 09:51:42;;;;;;;;;11.25;8.50;;;;;34.50;24.30;100699.88;144157;644;132010;-71
2021/08/25 09:54:19;;;;;;;;;7.75;7.75;;;;;34.13;26.03;100707.34;144156;599;132022;-71
2021/08/25 09:56:56;;;;;;;;;9.50;8.75;;;;;34.32;24.75;100711.28;144179;592;132010;-71
2021/08/25 09:59:30;;;;;;;;;10.25;9.75;;;;;34.36;24.92;100709.84;144160;601;132023;-70
2021/08/25 10:02:06;;;;;;;;;7.00;7.00;;;;;35.19;23.40;100692.62;144180;581;132010;-71
2021/08/25 10:04:40;;;;;;;;;8.75;8.75;;;;;34.74;24.39;100705.84;144153;712;132014;-71
2021/08/25 10:07:15;;;;;;;;;7.00;7.00;;;;;35.81;23.44;100687.03;144179;566;132011;-71
2021/08/25 10:09:49;;;;;;;;;8.25;7.00;;;;;35.44;24.00;100696.69;144168;605;132012;-71
2021/08/25 10:12:23;;;;;;;;;18.00;18.00;;;;;36.06;23.32;100692.72;144167;750;132010;-71
2021/08/25 10:14:57;;;;;;;;;13.50;13.50;;;;;36.83;22.44;100689.41;144151;620;132907;-72
2021/08/25 10:17:45;;;;;;;;;7.50;7.50;;;;;35.56;23.83;100678.63;144159;580;132012;-71
2021/08/25 10:20:48;;;;;;;;;11.00;11.00;;;;;34.93;24.72;100674.28;144154;615;132907;-73
2021/08/25 10:23:22;;;;;;;;;75.67;74.67;;;;;36.97;22.87;100679.22;144170;599;132010;-71
2021/08/25 10:26:14;;;;;;;;;33.25;29.00;;;;;36.61;23.55;100669.69;144147;572;132020;-72
2021/08/25 10:29:07;;;;;;;;;9.25;9.25;;;;;35.22;25.18;100670.38;144177;692;132012;-70
2021/08/25 10:32:16;;;;;;;;;9.75;8.00;;;;;35.13;24.17;100671.63;144149;674;132014;-72
2021/08/25 10:35:36;;;;;;;;;9.00;9.00;;;;;36.64;23.89;100663.78;144174;633;131020;-72
2021/08/25 10:38:34;;;;;;;;;11.00;11.00;;;;;37.06;24.28;100660.66;144161;583;132021;-72
2021/08/25 10:41:25;;;;;;;;;9.00;9.00;;;;;37.07;23.93;100659.59;144171;628;132014;-72
2021/08/25 10:43:59;;;;;;;;;9.50;9.50;;;;;36.49;25.47;100660.50;144154;580;132907;-69
2021/08/25 10:46:50;;;;;;;;;12.75;12.75;;;;;36.83;25.38;100661.22;144157;599;132012;-72
2021/08/25 10:49:47;;;;;;;;;9.25;9.25;;;;;37.07;24.99;100651.38;144147;592;132020;-72
2021/08/25 10:55:06;;;;;;;;;16.25;16.25;;;;;36.75;25.60;100641.22;144159;576;131032;-68
2021/08/25 10:57:40;;;;;;;;;10.00;8.75;;;;;36.63;26.29;100636.66;144178;564;131021;-66
2021/08/25 11:00:15;;;;;;;;;11.75;9.00;;;;;36.80;26.35;100639.72;144146;670;132916;-68
2021/08/25 11:02:49;;;;;;;;;15.75;14.75;;;;;36.81;26.26;100635.97;144172;563;131020;-68
2021/08/25 11:05:22;;;;;;;;;11.50;11.50;;;;;36.49;26.67;100631.25;144160;578;132915;-69
2021/08/25 11:07:56;;;;;;;;;9.50;9.50;;;;;36.12;26.95;100625.47;144172;588;132010;-69
2021/08/25 11:10:30;;;;;;;;;11.00;11.00;;;;;36.11;27.07;100633.87;144151;624;133016;-69
2021/08/25 11:13:04;;;;;;;;;11.00;11.00;;;;;36.22;26.79;100627.75;144158;594;132010;-69
2021/08/25 11:15:38;;;;;;;;;10.25;10.25;;;;;36.45;26.52;100637.37;144149;607;132021;-70
2021/08/25 11:18:12;;;;;;;;;10.25;9.50;;;;;35.82;27.46;100627.81;144169;592;132010;-69
2021/08/25 11:20:46;;;;;;;;;11.00;10.00;;;;;36.20;27.12;100632.59;144148;573;132020;-68
2021/08/25 11:23:20;;;;;;;;;10.00;9.75;;;;;35.06;28.92;100625.25;144174;584;131021;-68
2021/08/25 11:25:57;;;;;;;;;11.00;11.00;;;;;35.14;29.29;100620.63;144151;595;132012;-68
2021/08/25 11:28:31;;;;;;;;;11.00;11.00;;;;;34.58;30.39;100617.94;144171;584;132012;-68
2021/08/25 11:31:05;;;;;;;;;11.50;11.50;;;;;34.73;30.22;100616.94;144160;572;132012;-68
2021/08/25 11:33:39;;;;;;;;;12.00;12.00;;;;;34.95;30.32;100625.81;144171;585;132012;-69
2021/08/25 11:36:13;;;;;;;;;11.50;11.50;;;;;34.95;30.49;100617.66;144147;620;132014;-69
2021/08/25 11:38:47;;;;;;;;;9.25;9.25;;;;;34.11;32.25;100619.56;144161;569;131020;-68
2021/08/25 11:41:21;;;;;;;;;7.00;7.00;;;;;33.96;32.54;100607.97;144162;582;132012;-69
2021/08/25 11:43:55;;;;;;;;;12.25;12.25;;;;;34.41;32.07;100603.00;144169;596;132012;-69
2021/08/25 11:46:29;;;;;;;;;12.00;12.00;;;;;34.03;33.02;100606.13;144151;737;132012;-68
2021/08/25 11:49:04;;;;;;;;;13.50;11.75;;;;;34.36;33.11;100608.19;144166;563;132012;-69
2021/08/25 11:51:41;;;;;;;;;11.50;11.25;;;;;35.01;32.83;100602.38;144146;625;132012;-68
2021/08/25 11:54:15;;;;;;;;;11.50;11.50;;;;;34.46;34.24;100605.94;144167;580;132010;-70
2021/08/25 11:56:49;;;;;;;;;12.75;12.00;;;;;34.85;34.31;100609.87;144161;572;132018;-69
2021/08/25 11:59:23;;;;;;;;;6.75;6.75;;;;;34.47;35.13;100604.88;144173;634;132012;-68
2021/08/25 12:02:17;;;;;;;;;15.50;10.75;;;;;35.79;33.23;100600.91;144155;577;131915;-68
2021/08/25 12:04:51;;;;;;;;;9.50;9.50;;;;;34.98;35.14;100595.44;144157;600;132013;-69
2021/08/25 12:07:24;;;;;;;;;10.50;10.00;;;;;34.65;35.59;100596.16;144148;599;132014;-69
2021/08/25 12:09:59;;;;;;;;;11.00;10.50;;;;;34.98;35.57;100598.16;144174;569;131020;-68
2021/08/25 12:12:51;;;;;;;;;11.50;11.50;;;;;36.48;32.97;100599.50;144150;576;132015;-69
2021/08/25 12:15:25;;;;;;;;;12.75;12.75;;;;;36.32;33.44;100592.66;144170;583;131021;-70
2021/08/25 12:18:02;;;;;;;;;13.75;12.50;;;;;36.58;32.36;100582.63;144149;581;132012;-68
2021/08/25 12:20:43;;;;;;;;;12.00;12.00;;;;;36.76;31.93;100585.47;144175;636;131012;-68
2021/08/25 12:23:19;;;;;;;;;11.50;11.25;;;;;36.71;31.19;100581.72;144162;569;132012;-67